sensor_id;sensor_type;location;lat;lon;timestamp;temperature;humidity
31038;DHT22;17702;47.590;7.666;2024-01-30T00:01:15;8.30;99.90
31038;DHT22;17702;47.590;7.666;2024-01-30T00:03:41;8.30;99.90
31038;DHT22;17702;47.590;7.666;2024-01-30T00:06:07;8.30;99.90
31038;DHT22;17702;47.590;7.666;2024-01-30T00:08:33;8.30;99.90
31038;DHT22;17702;47.590;7.666;2024-01-30T00:10:59;8.30;99.90
31038;DHT22;17702;47.590;7.666;2024-01-30T00:13:25;8.30;99.90
31038;DHT22;17702;47.590;7.666;2024-01-30T00:15:50;8.40;99.90
31038;DHT22;17702;47.590;7.666;2024-01-30T00:18:16;8.40;99.90
31038;DHT22;17702;47.590;7.666;2024-01-30T00:20:41;8.40;99.90
31038;DHT22;17702;47.590;7.666;2024-01-30T00:23:08;8.30;99.90
31038;DHT22;17702;47.590;7.666;2024-01-30T00:25:34;8.30;99.90
31038;DHT22;17702;47.590;7.666;2024-01-30T00:27:59;8.30;99.90
31038;DHT22;17702;47.590;7.666;2024-01-30T00:30:25;8.30;99.90
31038;DHT22;17702;47.590;7.666;2024-01-30T00:32:50;8.30;99.90
31038;DHT22;17702;47.590;7.666;2024-01-30T00:35:16;8.30;99.90
31038;DHT22;17702;47.590;7.666;2024-01-30T00:37:42;8.20;99.90
31038;DHT22;17702;47.590;7.666;2024-01-30T00:40:07;8.30;99.90
31038;DHT22;17702;47.590;7.666;2024-01-30T00:42:35;8.30;99.90
31038;DHT22;17702;47.590;7.666;2024-01-30T00:45:01;8.30;99.90
31038;DHT22;17702;47.590;7.666;2024-01-30T00:47:27;8.30;99.90
31038;DHT22;17702;47.590;7.666;2024-01-30T00:49:54;8.30;99.90
31038;DHT22;17702;47.590;7.666;2024-01-30T00:52:20;8.20;99.90
31038;DHT22;17702;47.590;7.666;2024-01-30T00:54:45;8.20;99.90
31038;DHT22;17702;47.590;7.666;2024-01-30T00:57:11;8.10;99.90
31038;DHT22;17702;47.590;7.666;2024-01-30T00:59:36;8.00;99.90
31038;DHT22;17702;47.590;7.666;2024-01-30T01:02:02;7.90;99.90
31038;DHT22;17702;47.590;7.666;2024-01-30T01:04:27;7.80;99.90
31038;DHT22;17702;47.590;7.666;2024-01-30T01:06:53;7.60;99.90
31038;DHT22;17702;47.590;7.666;2024-01-30T01:09:19;7.50;99.90
31038;DHT22;17702;47.590;7.666;2024-01-30T01:11:44;7.40;99.90
31038;DHT22;17702;47.590;7.666;2024-01-30T01:14:10;7.30;99.90
31038;DHT22;17702;47.590;7.666;2024-01-30T01:16:35;7.30;99.90
31038;DHT22;17702;47.590;7.666;2024-01-30T01:19:01;7.20;99.90
31038;DHT22;17702;47.590;7.666;2024-01-30T01:21:26;7.10;99.90
31038;DHT22;17702;47.590;7.666;2024-01-30T01:23:52;7.10;99.90
31038;DHT22;17702;47.590;7.666;2024-01-30T01:26:18;6.90;99.90
31038;DHT22;17702;47.590;7.666;2024-01-30T01:28:43;6.90;99.90
31038;DHT22;17702;47.590;7.666;2024-01-30T01:31:09;6.90;99.90
31038;DHT22;17702;47.590;7.666;2024-01-30T01:33:35;6.80;99.90
31038;DHT22;17702;47.590;7.666;2024-01-30T01:36:02;6.80;99.90
31038;DHT22;17702;47.590;7.666;2024-01-30T01:38:28;6.80;99.90
31038;DHT22;17702;47.590;7.666;2024-01-30T01:40:54;6.70;99.90
31038;DHT22;17702;47.590;7.666;2024-01-30T01:43:19;6.70;99.90
31038;DHT22;17702;47.590;7.666;2024-01-30T01:45:45;6.60;99.90
31038;DHT22;17702;47.590;7.666;2024-01-30T01:48:11;6.60;99.90
31038;DHT22;17702;47.590;7.666;2024-01-30T01:50:38;6.60;99.90
31038;DHT22;17702;47.590;7.666;2024-01-30T01:53:06;6.60;99.90
31038;DHT22;17702;47.590;7.666;2024-01-30T01:55:33;6.60;99.90
31038;DHT22;17702;47.590;7.666;2024-01-30T01:58:00;6.70;99.90
31038;DHT22;17702;47.590;7.666;2024-01-30T02:00:26;6.50;99.90
31038;DHT22;17702;47.590;7.666;2024-01-30T02:02:53;6.60;99.90
31038;DHT22;17702;47.590;7.666;2024-01-30T02:05:20;6.60;99.90
31038;DHT22;17702;47.590;7.666;2024-01-30T02:07:46;6.60;99.90
31038;DHT22;17702;47.590;7.666;2024-01-30T02:10:12;6.60;99.90
31038;DHT22;17702;47.590;7.666;2024-01-30T02:12:38;6.60;99.90
31038;DHT22;17702;47.590;7.666;2024-01-30T02:15:04;6.60;99.90
31038;DHT22;17702;47.590;7.666;2024-01-30T02:17:30;6.50;99.90
31038;DHT22;17702;47.590;7.666;2024-01-30T02:19:56;6.50;99.90
31038;DHT22;17702;47.590;7.666;2024-01-30T02:22:22;6.50;99.90
31038;DHT22;17702;47.590;7.666;2024-01-30T02:24:49;6.40;99.90
31038;DHT22;17702;47.590;7.666;2024-01-30T02:27:14;6.40;99.90
31038;DHT22;17702;47.590;7.666;2024-01-30T02:29:40;6.40;99.90
31038;DHT22;17702;47.590;7.666;2024-01-30T02:32:06;6.40;99.90
31038;DHT22;17702;47.590;7.666;2024-01-30T02:34:33;6.30;99.90
31038;DHT22;17702;47.590;7.666;2024-01-30T02:36:58;6.30;99.90
31038;DHT22;17702;47.590;7.666;2024-01-30T02:39:24;6.20;99.90
31038;DHT22;17702;47.590;7.666;2024-01-30T02:41:56;6.10;99.90
31038;DHT22;17702;47.590;7.666;2024-01-30T02:44:22;6.00;99.90
31038;DHT22;17702;47.590;7.666;2024-01-30T02:46:47;6.00;99.90
31038;DHT22;17702;47.590;7.666;2024-01-30T02:49:13;6.10;99.90
31038;DHT22;17702;47.590;7.666;2024-01-30T02:51:39;6.10;99.90
31038;DHT22;17702;47.590;7.666;2024-01-30T02:54:04;6.00;99.90
31038;DHT22;17702;47.590;7.666;2024-01-30T02:56:30;5.90;99.90
31038;DHT22;17702;47.590;7.666;2024-01-30T02:58:55;5.90;99.90
31038;DHT22;17702;47.590;7.666;2024-01-30T03:01:21;5.90;99.90
31038;DHT22;17702;47.590;7.666;2024-01-30T03:03:47;5.90;99.90
31038;DHT22;17702;47.590;7.666;2024-01-30T03:06:12;5.90;99.90
31038;DHT22;17702;47.590;7.666;2024-01-30T03:08:40;5.90;99.90
31038;DHT22;17702;47.590;7.666;2024-01-30T03:11:06;6.10;99.90
31038;DHT22;17702;47.590;7.666;2024-01-30T03:13:31;6.00;99.90
31038;DHT22;17702;47.590;7.666;2024-01-30T03:15:57;6.00;99.90
31038;DHT22;17702;47.590;7.666;2024-01-30T03:18:22;6.00;99.90
31038;DHT22;17702;47.590;7.666;2024-01-30T03:20:48;6.00;99.90
31038;DHT22;17702;47.590;7.666;2024-01-30T03:23:14;6.00;99.90
31038;DHT22;17702;47.590;7.666;2024-01-30T03:25:39;6.00;99.90
31038;DHT22;17702;47.590;7.666;2024-01-30T03:28:05;6.00;99.90
31038;DHT22;17702;47.590;7.666;2024-01-30T03:30:30;5.90;99.90
31038;DHT22;17702;47.590;7.666;2024-01-30T03:32:56;5.80;99.90
31038;DHT22;17702;47.590;7.666;2024-01-30T03:35:21;5.80;99.90
31038;DHT22;17702;47.590;7.666;2024-01-30T03:37:47;5.90;99.90
31038;DHT22;17702;47.590;7.666;2024-01-30T03:40:13;5.90;99.90
31038;DHT22;17702;47.590;7.666;2024-01-30T03:42:38;6.10;99.90
31038;DHT22;17702;47.590;7.666;2024-01-30T03:45:04;6.30;99.90
31038;DHT22;17702;47.590;7.666;2024-01-30T03:47:30;6.40;99.90
31038;DHT22;17702;47.590;7.666;2024-01-30T03:49:55;6.50;99.90
31038;DHT22;17702;47.590;7.666;2024-01-30T03:52:21;6.60;99.90
31038;DHT22;17702;47.590;7.666;2024-01-30T03:54:46;6.70;99.90
31038;DHT22;17702;47.590;7.666;2024-01-30T03:57:15;6.70;99.90
31038;DHT22;17702;47.590;7.666;2024-01-30T03:59:43;6.70;99.90
31038;DHT22;17702;47.590;7.666;2024-01-30T04:02:10;6.70;99.90
31038;DHT22;17702;47.590;7.666;2024-01-30T04:04:37;6.70;99.90
31038;DHT22;17702;47.590;7.666;2024-01-30T04:07:02;6.60;99.90
31038;DHT22;17702;47.590;7.666;2024-01-30T04:09:28;6.50;99.90
31038;DHT22;17702;47.590;7.666;2024-01-30T04:11:54;6.40;99.90
31038;DHT22;17702;47.590;7.666;2024-01-30T04:14:19;6.30;99.90
31038;DHT22;17702;47.590;7.666;2024-01-30T04:16:45;6.30;99.90
31038;DHT22;17702;47.590;7.666;2024-01-30T04:19:10;6.30;99.90
31038;DHT22;17702;47.590;7.666;2024-01-30T04:21:36;6.30;99.90
31038;DHT22;17702;47.590;7.666;2024-01-30T04:24:02;6.30;99.90
31038;DHT22;17702;47.590;7.666;2024-01-30T04:26:27;6.30;99.90
31038;DHT22;17702;47.590;7.666;2024-01-30T04:28:53;6.20;99.90
31038;DHT22;17702;47.590;7.666;2024-01-30T04:31:18;6.10;99.90
31038;DHT22;17702;47.590;7.666;2024-01-30T04:33:44;6.10;99.90
31038;DHT22;17702;47.590;7.666;2024-01-30T04:36:09;6.00;99.90
31038;DHT22;17702;47.590;7.666;2024-01-30T04:38:35;6.00;99.90
31038;DHT22;17702;47.590;7.666;2024-01-30T04:41:01;5.90;99.90
31038;DHT22;17702;47.590;7.666;2024-01-30T04:43:26;5.80;99.90
31038;DHT22;17702;47.590;7.666;2024-01-30T04:45:52;5.80;99.90
31038;DHT22;17702;47.590;7.666;2024-01-30T04:48:18;5.70;99.90
31038;DHT22;17702;47.590;7.666;2024-01-30T04:50:44;5.70;99.90
31038;DHT22;17702;47.590;7.666;2024-01-30T04:53:09;5.70;99.90
31038;DHT22;17702;47.590;7.666;2024-01-30T04:55:35;5.70;99.90
31038;DHT22;17702;47.590;7.666;2024-01-30T04:58:01;5.60;99.90
31038;DHT22;17702;47.590;7.666;2024-01-30T05:00:27;5.60;99.90
31038;DHT22;17702;47.590;7.666;2024-01-30T05:02:55;5.60;99.90
31038;DHT22;17702;47.590;7.666;2024-01-30T05:05:20;5.60;99.90
31038;DHT22;17702;47.590;7.666;2024-01-30T05:07:47;5.60;99.90
31038;DHT22;17702;47.590;7.666;2024-01-30T05:10:13;5.60;99.90
31038;DHT22;17702;47.590;7.666;2024-01-30T05:12:39;5.60;99.90
31038;DHT22;17702;47.590;7.666;2024-01-30T05:15:05;5.50;99.90
31038;DHT22;17702;47.590;7.666;2024-01-30T05:17:30;5.50;99.90
31038;DHT22;17702;47.590;7.666;2024-01-30T05:19:56;5.40;99.90
31038;DHT22;17702;47.590;7.666;2024-01-30T05:22:21;5.50;99.90
31038;DHT22;17702;47.590;7.666;2024-01-30T05:24:47;5.50;99.90
31038;DHT22;17702;47.590;7.666;2024-01-30T05:27:12;5.60;99.90
31038;DHT22;17702;47.590;7.666;2024-01-30T05:29:42;5.50;99.90
31038;DHT22;17702;47.590;7.666;2024-01-30T05:32:07;5.50;99.90
31038;DHT22;17702;47.590;7.666;2024-01-30T05:34:34;5.50;99.90
31038;DHT22;17702;47.590;7.666;2024-01-30T05:36:59;5.50;99.90
31038;DHT22;17702;47.590;7.666;2024-01-30T05:39:25;5.50;99.90
31038;DHT22;17702;47.590;7.666;2024-01-30T05:41:50;5.50;99.90
31038;DHT22;17702;47.590;7.666;2024-01-30T05:44:16;5.50;99.90
31038;DHT22;17702;47.590;7.666;2024-01-30T05:46:41;5.50;99.90
31038;DHT22;17702;47.590;7.666;2024-01-30T05:49:07;5.50;99.90
31038;DHT22;17702;47.590;7.666;2024-01-30T05:51:33;5.40;99.90
31038;DHT22;17702;47.590;7.666;2024-01-30T05:53:58;5.40;99.90
31038;DHT22;17702;47.590;7.666;2024-01-30T05:56:24;5.30;99.90
31038;DHT22;17702;47.590;7.666;2024-01-30T05:58:49;5.40;99.90
31038;DHT22;17702;47.590;7.666;2024-01-30T06:01:16;5.30;99.90
31038;DHT22;17702;47.590;7.666;2024-01-30T06:03:41;5.30;99.90
31038;DHT22;17702;47.590;7.666;2024-01-30T06:06:08;5.30;99.90
31038;DHT22;17702;47.590;7.666;2024-01-30T06:08:34;5.30;99.90
31038;DHT22;17702;47.590;7.666;2024-01-30T06:11:00;5.30;99.90
31038;DHT22;17702;47.590;7.666;2024-01-30T06:13:26;5.30;99.90
31038;DHT22;17702;47.590;7.666;2024-01-30T06:15:52;5.30;99.90
31038;DHT22;17702;47.590;7.666;2024-01-30T06:18:17;5.30;99.90
31038;DHT22;17702;47.590;7.666;2024-01-30T06:20:43;5.20;99.90
31038;DHT22;17702;47.590;7.666;2024-01-30T06:23:09;5.20;99.90
31038;DHT22;17702;47.590;7.666;2024-01-30T06:25:34;5.10;99.90
31038;DHT22;17702;47.590;7.666;2024-01-30T06:28:00;5.20;99.90
31038;DHT22;17702;47.590;7.666;2024-01-30T06:30:26;5.10;99.90
31038;DHT22;17702;47.590;7.666;2024-01-30T06:32:51;5.10;99.90
31038;DHT22;17702;47.590;7.666;2024-01-30T06:35:17;5.10;99.90
31038;DHT22;17702;47.590;7.666;2024-01-30T06:37:43;5.10;99.90
31038;DHT22;17702;47.590;7.666;2024-01-30T06:40:09;5.10;99.90
31038;DHT22;17702;47.590;7.666;2024-01-30T06:42:35;5.10;99.90
31038;DHT22;17702;47.590;7.666;2024-01-30T06:45:00;5.10;99.90
31038;DHT22;17702;47.590;7.666;2024-01-30T06:47:26;5.10;99.90
31038;DHT22;17702;47.590;7.666;2024-01-30T06:49:51;5.10;99.90
31038;DHT22;17702;47.590;7.666;2024-01-30T06:52:17;5.10;99.90
31038;DHT22;17702;47.590;7.666;2024-01-30T06:54:43;5.10;99.90
31038;DHT22;17702;47.590;7.666;2024-01-30T06:57:09;5.00;99.90
31038;DHT22;17702;47.590;7.666;2024-01-30T06:59:37;5.10;99.90
31038;DHT22;17702;47.590;7.666;2024-01-30T07:02:07;5.00;99.90
31038;DHT22;17702;47.590;7.666;2024-01-30T07:04:33;5.00;99.90
31038;DHT22;17702;47.590;7.666;2024-01-30T07:06:58;5.10;99.90
31038;DHT22;17702;47.590;7.666;2024-01-30T07:09:24;5.00;99.90
31038;DHT22;17702;47.590;7.666;2024-01-30T07:11:49;5.00;99.90
31038;DHT22;17702;47.590;7.666;2024-01-30T07:14:15;5.00;99.90
31038;DHT22;17702;47.590;7.666;2024-01-30T07:16:40;5.00;99.90
31038;DHT22;17702;47.590;7.666;2024-01-30T07:19:06;5.00;99.90
31038;DHT22;17702;47.590;7.666;2024-01-30T07:21:34;5.10;99.90
31038;DHT22;17702;47.590;7.666;2024-01-30T07:24:00;5.10;99.90
31038;DHT22;17702;47.590;7.666;2024-01-30T07:26:25;5.10;99.90
31038;DHT22;17702;47.590;7.666;2024-01-30T07:28:51;5.10;99.90
31038;DHT22;17702;47.590;7.666;2024-01-30T07:31:17;5.10;99.90
31038;DHT22;17702;47.590;7.666;2024-01-30T07:33:46;5.10;99.90
31038;DHT22;17702;47.590;7.666;2024-01-30T07:36:11;5.10;99.90
31038;DHT22;17702;47.590;7.666;2024-01-30T07:38:37;5.10;99.90
31038;DHT22;17702;47.590;7.666;2024-01-30T07:41:03;5.10;99.90
31038;DHT22;17702;47.590;7.666;2024-01-30T07:43:28;5.20;99.90
31038;DHT22;17702;47.590;7.666;2024-01-30T07:45:54;5.10;99.90
31038;DHT22;17702;47.590;7.666;2024-01-30T07:48:19;5.10;99.90
31038;DHT22;17702;47.590;7.666;2024-01-30T07:50:45;5.20;99.90
31038;DHT22;17702;47.590;7.666;2024-01-30T07:53:10;5.20;99.90
31038;DHT22;17702;47.590;7.666;2024-01-30T07:55:36;5.20;99.90
31038;DHT22;17702;47.590;7.666;2024-01-30T07:58:02;5.20;99.90
31038;DHT22;17702;47.590;7.666;2024-01-30T08:00:29;5.10;99.90
31038;DHT22;17702;47.590;7.666;2024-01-30T08:02:54;5.20;99.90
31038;DHT22;17702;47.590;7.666;2024-01-30T08:05:21;5.20;99.90
31038;DHT22;17702;47.590;7.666;2024-01-30T08:07:48;5.30;99.90
31038;DHT22;17702;47.590;7.666;2024-01-30T08:10:14;5.40;99.90
31038;DHT22;17702;47.590;7.666;2024-01-30T08:12:41;5.50;99.90
31038;DHT22;17702;47.590;7.666;2024-01-30T08:15:07;5.50;99.90
31038;DHT22;17702;47.590;7.666;2024-01-30T08:17:33;5.50;99.90
31038;DHT22;17702;47.590;7.666;2024-01-30T08:19:59;5.60;99.90
31038;DHT22;17702;47.590;7.666;2024-01-30T08:22:25;5.60;99.90
31038;DHT22;17702;47.590;7.666;2024-01-30T08:24:50;5.70;99.90
31038;DHT22;17702;47.590;7.666;2024-01-30T08:27:16;5.70;99.90
31038;DHT22;17702;47.590;7.666;2024-01-30T08:29:42;5.80;99.90
31038;DHT22;17702;47.590;7.666;2024-01-30T08:32:07;5.80;99.90
31038;DHT22;17702;47.590;7.666;2024-01-30T08:34:33;5.80;99.90
31038;DHT22;17702;47.590;7.666;2024-01-30T08:36:59;5.90;99.90
31038;DHT22;17702;47.590;7.666;2024-01-30T08:39:25;6.00;99.90
31038;DHT22;17702;47.590;7.666;2024-01-30T08:41:50;6.10;99.90
31038;DHT22;17702;47.590;7.666;2024-01-30T08:44:16;6.10;99.90
31038;DHT22;17702;47.590;7.666;2024-01-30T08:46:43;6.20;99.90
31038;DHT22;17702;47.590;7.666;2024-01-30T08:49:10;6.20;99.90
31038;DHT22;17702;47.590;7.666;2024-01-30T08:51:35;6.20;99.90
31038;DHT22;17702;47.590;7.666;2024-01-30T08:54:01;6.20;99.90
31038;DHT22;17702;47.590;7.666;2024-01-30T08:56:27;6.30;99.90
31038;DHT22;17702;47.590;7.666;2024-01-30T08:58:53;6.30;99.90
31038;DHT22;17702;47.590;7.666;2024-01-30T09:01:18;6.40;99.90
31038;DHT22;17702;47.590;7.666;2024-01-30T09:03:44;6.40;99.90
31038;DHT22;17702;47.590;7.666;2024-01-30T09:06:11;6.50;99.90
31038;DHT22;17702;47.590;7.666;2024-01-30T09:08:37;6.50;99.90
31038;DHT22;17702;47.590;7.666;2024-01-30T09:11:29;6.70;99.90
31038;DHT22;17702;47.590;7.666;2024-01-30T09:13:54;6.80;99.90
31038;DHT22;17702;47.590;7.666;2024-01-30T09:16:20;6.90;99.90
31038;DHT22;17702;47.590;7.666;2024-01-30T09:18:46;6.90;99.90
31038;DHT22;17702;47.590;7.666;2024-01-30T09:21:11;7.00;99.90
31038;DHT22;17702;47.590;7.666;2024-01-30T09:23:37;7.10;99.90
31038;DHT22;17702;47.590;7.666;2024-01-30T09:26:03;7.10;99.90
31038;DHT22;17702;47.590;7.666;2024-01-30T09:28:29;7.10;99.90
31038;DHT22;17702;47.590;7.666;2024-01-30T09:30:54;7.20;99.90
31038;DHT22;17702;47.590;7.666;2024-01-30T09:33:20;7.30;99.90
31038;DHT22;17702;47.590;7.666;2024-01-30T09:35:45;7.40;99.90
31038;DHT22;17702;47.590;7.666;2024-01-30T09:38:11;7.50;99.90
31038;DHT22;17702;47.590;7.666;2024-01-30T09:40:37;7.60;99.90
31038;DHT22;17702;47.590;7.666;2024-01-30T09:43:03;7.70;99.90
31038;DHT22;17702;47.590;7.666;2024-01-30T09:45:30;7.90;99.90
31038;DHT22;17702;47.590;7.666;2024-01-30T09:47:59;8.00;99.90
31038;DHT22;17702;47.590;7.666;2024-01-30T09:50:25;8.10;99.90
31038;DHT22;17702;47.590;7.666;2024-01-30T09:52:55;8.10;99.90
31038;DHT22;17702;47.590;7.666;2024-01-30T09:55:22;8.20;99.90
31038;DHT22;17702;47.590;7.666;2024-01-30T09:57:48;8.30;99.90
31038;DHT22;17702;47.590;7.666;2024-01-30T10:00:14;8.30;99.90
31038;DHT22;17702;47.590;7.666;2024-01-30T10:02:39;8.40;99.90
31038;DHT22;17702;47.590;7.666;2024-01-30T10:05:05;8.50;99.90
31038;DHT22;17702;47.590;7.666;2024-01-30T10:07:31;8.60;99.90
31038;DHT22;17702;47.590;7.666;2024-01-30T10:09:57;8.70;99.90
31038;DHT22;17702;47.590;7.666;2024-01-30T10:12:23;8.70;99.90
31038;DHT22;17702;47.590;7.666;2024-01-30T10:14:51;8.80;99.90
31038;DHT22;17702;47.590;7.666;2024-01-30T10:17:16;8.80;99.90
31038;DHT22;17702;47.590;7.666;2024-01-30T10:19:42;8.90;99.90
31038;DHT22;17702;47.590;7.666;2024-01-30T10:22:09;8.90;99.90
31038;DHT22;17702;47.590;7.666;2024-01-30T10:24:34;9.00;99.90
31038;DHT22;17702;47.590;7.666;2024-01-30T10:27:00;9.00;99.90
31038;DHT22;17702;47.590;7.666;2024-01-30T10:29:27;9.10;99.90
31038;DHT22;17702;47.590;7.666;2024-01-30T10:32:04;9.20;99.90
31038;DHT22;17702;47.590;7.666;2024-01-30T10:34:30;9.30;99.90
31038;DHT22;17702;47.590;7.666;2024-01-30T10:37:16;9.50;99.90
31038;DHT22;17702;47.590;7.666;2024-01-30T10:39:44;9.50;99.90
31038;DHT22;17702;47.590;7.666;2024-01-30T10:42:15;9.60;99.90
31038;DHT22;17702;47.590;7.666;2024-01-30T10:45:05;9.60;99.90
31038;DHT22;17702;47.590;7.666;2024-01-30T10:47:32;9.70;99.90
31038;DHT22;17702;47.590;7.666;2024-01-30T10:49:59;9.70;99.90
31038;DHT22;17702;47.590;7.666;2024-01-30T10:52:26;9.70;99.90
31038;DHT22;17702;47.590;7.666;2024-01-30T10:54:53;9.80;99.90
31038;DHT22;17702;47.590;7.666;2024-01-30T10:57:19;9.80;99.90
31038;DHT22;17702;47.590;7.666;2024-01-30T10:59:48;9.90;99.90
31038;DHT22;17702;47.590;7.666;2024-01-30T11:02:14;10.20;99.90
31038;DHT22;17702;47.590;7.666;2024-01-30T11:04:41;10.40;99.90
31038;DHT22;17702;47.590;7.666;2024-01-30T11:07:24;10.60;99.80
31038;DHT22;17702;47.590;7.666;2024-01-30T11:09:59;10.90;99.00
31038;DHT22;17702;47.590;7.666;2024-01-30T11:12:30;11.00;98.10
31038;DHT22;17702;47.590;7.666;2024-01-30T11:17:50;11.20;96.50
31038;DHT22;17702;47.590;7.666;2024-01-30T11:20:18;11.10;96.80
31038;DHT22;17702;47.590;7.666;2024-01-30T11:22:45;11.20;97.80
31038;DHT22;17702;47.590;7.666;2024-01-30T11:25:13;11.40;97.20
31038;DHT22;17702;47.590;7.666;2024-01-30T11:27:39;11.50;97.30
31038;DHT22;17702;47.590;7.666;2024-01-30T11:30:05;11.70;96.90
31038;DHT22;17702;47.590;7.666;2024-01-30T11:32:31;11.70;96.60
31038;DHT22;17702;47.590;7.666;2024-01-30T11:34:57;11.80;96.50
31038;DHT22;17702;47.590;7.666;2024-01-30T11:37:25;11.80;96.20
31038;DHT22;17702;47.590;7.666;2024-01-30T11:39:53;11.80;95.90
31038;DHT22;17702;47.590;7.666;2024-01-30T11:42:19;11.80;95.90
31038;DHT22;17702;47.590;7.666;2024-01-30T11:44:48;11.80;95.70
31038;DHT22;17702;47.590;7.666;2024-01-30T11:47:14;11.80;95.90
31038;DHT22;17702;47.590;7.666;2024-01-30T11:49:41;11.80;96.00
31038;DHT22;17702;47.590;7.666;2024-01-30T11:52:07;11.80;96.10
31038;DHT22;17702;47.590;7.666;2024-01-30T11:54:32;11.90;96.30
31038;DHT22;17702;47.590;7.666;2024-01-30T11:56:58;11.90;95.00
31038;DHT22;17702;47.590;7.666;2024-01-30T11:59:24;11.90;95.60
31038;DHT22;17702;47.590;7.666;2024-01-30T12:01:51;11.90;96.40
31038;DHT22;17702;47.590;7.666;2024-01-30T12:04:17;11.90;95.50
31038;DHT22;17702;47.590;7.666;2024-01-30T12:06:43;11.90;95.90
31038;DHT22;17702;47.590;7.666;2024-01-30T12:09:09;11.90;95.90
31038;DHT22;17702;47.590;7.666;2024-01-30T12:14:11;11.80;95.50
31038;DHT22;17702;47.590;7.666;2024-01-30T12:16:37;11.90;96.00
31038;DHT22;17702;47.590;7.666;2024-01-30T12:19:02;11.90;95.50
31038;DHT22;17702;47.590;7.666;2024-01-30T12:21:29;12.00;95.80
31038;DHT22;17702;47.590;7.666;2024-01-30T12:23:55;12.10;96.10
31038;DHT22;17702;47.590;7.666;2024-01-30T12:26:21;12.10;95.60
31038;DHT22;17702;47.590;7.666;2024-01-30T12:28:50;12.10;94.40
31038;DHT22;17702;47.590;7.666;2024-01-30T12:31:16;12.10;94.50
31038;DHT22;17702;47.590;7.666;2024-01-30T12:33:41;12.00;95.20
31038;DHT22;17702;47.590;7.666;2024-01-30T12:36:07;12.00;94.80
31038;DHT22;17702;47.590;7.666;2024-01-30T12:38:33;12.10;94.80
31038;DHT22;17702;47.590;7.666;2024-01-30T12:40:58;12.10;94.40
31038;DHT22;17702;47.590;7.666;2024-01-30T12:43:25;12.10;93.60
31038;DHT22;17702;47.590;7.666;2024-01-30T12:45:52;12.20;94.00
31038;DHT22;17702;47.590;7.666;2024-01-30T12:48:18;12.20;94.20
31038;DHT22;17702;47.590;7.666;2024-01-30T12:50:43;12.30;94.30
31038;DHT22;17702;47.590;7.666;2024-01-30T12:53:09;12.30;94.00
31038;DHT22;17702;47.590;7.666;2024-01-30T12:55:35;12.40;95.20
31038;DHT22;17702;47.590;7.666;2024-01-30T12:58:01;12.50;95.50
31038;DHT22;17702;47.590;7.666;2024-01-30T13:00:27;12.50;95.50
31038;DHT22;17702;47.590;7.666;2024-01-30T13:02:52;12.50;94.90
31038;DHT22;17702;47.590;7.666;2024-01-30T13:05:18;12.60;94.50
31038;DHT22;17702;47.590;7.666;2024-01-30T13:07:44;12.60;93.80
31038;DHT22;17702;47.590;7.666;2024-01-30T13:10:09;12.70;93.20
31038;DHT22;17702;47.590;7.666;2024-01-30T13:12:35;12.80;93.00
31038;DHT22;17702;47.590;7.666;2024-01-30T13:15:01;12.90;93.20
31038;DHT22;17702;47.590;7.666;2024-01-30T13:17:27;12.90;93.40
31038;DHT22;17702;47.590;7.666;2024-01-30T13:19:53;13.10;93.50
31038;DHT22;17702;47.590;7.666;2024-01-30T13:22:20;13.20;93.50
31038;DHT22;17702;47.590;7.666;2024-01-30T13:24:48;13.30;93.30
31038;DHT22;17702;47.590;7.666;2024-01-30T13:27:14;13.40;92.30
31038;DHT22;17702;47.590;7.666;2024-01-30T13:29:39;13.50;91.10
31038;DHT22;17702;47.590;7.666;2024-01-30T13:32:05;13.60;91.20
31038;DHT22;17702;47.590;7.666;2024-01-30T13:34:31;13.70;90.00
31038;DHT22;17702;47.590;7.666;2024-01-30T13:36:56;13.70;88.40
31038;DHT22;17702;47.590;7.666;2024-01-30T13:39:22;13.70;89.50
31038;DHT22;17702;47.590;7.666;2024-01-30T13:41:48;13.70;87.80
31038;DHT22;17702;47.590;7.666;2024-01-30T13:44:15;13.70;87.40
31038;DHT22;17702;47.590;7.666;2024-01-30T13:46:42;13.70;87.00
31038;DHT22;17702;47.590;7.666;2024-01-30T13:49:07;13.70;86.40
31038;DHT22;17702;47.590;7.666;2024-01-30T13:51:33;13.70;85.80
31038;DHT22;17702;47.590;7.666;2024-01-30T13:53:58;13.60;86.00
31038;DHT22;17702;47.590;7.666;2024-01-30T13:56:24;13.70;87.30
31038;DHT22;17702;47.590;7.666;2024-01-30T13:58:52;13.60;88.60
31038;DHT22;17702;47.590;7.666;2024-01-30T14:01:18;13.70;89.80
31038;DHT22;17702;47.590;7.666;2024-01-30T14:03:44;13.60;91.00
31038;DHT22;17702;47.590;7.666;2024-01-30T14:06:10;13.70;91.20
31038;DHT22;17702;47.590;7.666;2024-01-30T14:08:36;13.60;91.00
31038;DHT22;17702;47.590;7.666;2024-01-30T14:11:01;13.60;89.80
31038;DHT22;17702;47.590;7.666;2024-01-30T14:13:27;13.50;89.80
31038;DHT22;17702;47.590;7.666;2024-01-30T14:15:53;13.50;87.60
31038;DHT22;17702;47.590;7.666;2024-01-30T14:18:18;13.40;83.00
31038;DHT22;17702;47.590;7.666;2024-01-30T14:20:44;13.40;81.50
31038;DHT22;17702;47.590;7.666;2024-01-30T14:23:10;13.30;82.60
31038;DHT22;17702;47.590;7.666;2024-01-30T14:25:35;13.20;82.40
31038;DHT22;17702;47.590;7.666;2024-01-30T14:28:01;13.20;82.40
31038;DHT22;17702;47.590;7.666;2024-01-30T14:30:26;13.10;83.80
31038;DHT22;17702;47.590;7.666;2024-01-30T14:32:52;13.10;84.10
31038;DHT22;17702;47.590;7.666;2024-01-30T14:35:17;13.10;85.40
31038;DHT22;17702;47.590;7.666;2024-01-30T14:37:44;13.10;87.30
31038;DHT22;17702;47.590;7.666;2024-01-30T14:40:10;13.00;87.50
31038;DHT22;17702;47.590;7.666;2024-01-30T14:42:36;13.10;87.00
31038;DHT22;17702;47.590;7.666;2024-01-30T14:45:03;13.00;85.00
31038;DHT22;17702;47.590;7.666;2024-01-30T14:47:29;13.10;85.40
31038;DHT22;17702;47.590;7.666;2024-01-30T14:49:56;13.00;85.40
31038;DHT22;17702;47.590;7.666;2024-01-30T14:52:22;13.00;86.00
31038;DHT22;17702;47.590;7.666;2024-01-30T14:54:47;13.00;84.50
31038;DHT22;17702;47.590;7.666;2024-01-30T14:57:13;12.90;84.90
31038;DHT22;17702;47.590;7.666;2024-01-30T14:59:39;12.90;84.70
31038;DHT22;17702;47.590;7.666;2024-01-30T15:02:06;12.90;84.90
31038;DHT22;17702;47.590;7.666;2024-01-30T15:04:31;12.80;85.30
31038;DHT22;17702;47.590;7.666;2024-01-30T15:06:57;12.80;87.20
31038;DHT22;17702;47.590;7.666;2024-01-30T15:09:23;12.80;86.50
31038;DHT22;17702;47.590;7.666;2024-01-30T15:11:49;12.80;86.10
31038;DHT22;17702;47.590;7.666;2024-01-30T15:14:15;12.80;87.20
31038;DHT22;17702;47.590;7.666;2024-01-30T15:16:41;12.80;87.10
31038;DHT22;17702;47.590;7.666;2024-01-30T15:19:07;12.80;90.40
31038;DHT22;17702;47.590;7.666;2024-01-30T15:21:33;12.80;90.40
31038;DHT22;17702;47.590;7.666;2024-01-30T15:23:58;12.70;89.10
31038;DHT22;17702;47.590;7.666;2024-01-30T15:26:24;12.70;89.70
31038;DHT22;17702;47.590;7.666;2024-01-30T15:28:51;12.70;90.40
31038;DHT22;17702;47.590;7.666;2024-01-30T15:31:16;12.60;91.50
31038;DHT22;17702;47.590;7.666;2024-01-30T15:33:42;12.60;91.30
31038;DHT22;17702;47.590;7.666;2024-01-30T15:36:08;12.50;91.50
31038;DHT22;17702;47.590;7.666;2024-01-30T15:38:34;12.60;91.60
31038;DHT22;17702;47.590;7.666;2024-01-30T15:41:00;12.60;93.20